Time;durP1;ratioP1;P1;durP2;ratioP2;P2;SDS_P1;SDS_P2;PMS_P1;PMS_P2;Temp;Humidity;BMP_temperature;BMP_pressure;BME280_temperature;BME280_humidity;BME280_pressure;Samples;Min_cycle;Max_cycle;Signal;HPM_P1;HPM_P2
2022/05/22 00:01:13;;;;;;;2.60;1.83;;;;;;;21.14;50.95;99003.56;5112719;28;20240;-69
2022/05/22 00:03:39;;;;;;;1.97;1.87;;;;;;;21.06;51.50;99000.63;5113259;28;20224;-69
2022/05/22 00:06:06;;;;;;;1.97;1.87;;;;;;;21.22;51.18;99005.69;5112700;28;20222;-69
2022/05/22 00:08:33;;;;;;;3.10;1.90;;;;;;;21.40;50.57;99002.34;5113167;28;20251;-69
2022/05/22 00:10:59;;;;;;;2.00;1.90;;;;;;;21.48;50.78;99003.69;5112010;28;20194;-70
2022/05/22 00:13:28;;;;;;;1.80;1.70;;;;;;;21.08;52.79;98993.88;5112593;28;20187;-69
2022/05/22 00:18:38;;;;;;;2.10;1.80;;;;;;;21.23;52.55;98985.69;5112847;28;20638;-69
2022/05/22 00:21:05;;;;;;;1.73;1.63;;;;;;;21.34;52.52;98992.66;5115922;28;20733;-69
2022/05/22 00:23:33;;;;;;;1.70;1.50;;;;;;;21.48;52.20;98990.97;5116455;28;20252;-69
2022/05/22 00:25:59;;;;;;;4.80;2.20;;;;;;;21.63;51.93;98979.25;5115795;28;20197;-69
2022/05/22 00:28:28;;;;;;;1.70;1.60;;;;;;;21.71;52.00;98986.81;5116075;28;20191;-69
2022/05/22 00:30:54;;;;;;;5.60;1.90;;;;;;;21.81;51.91;98984.84;5115988;28;20195;-69
2022/05/22 00:33:21;;;;;;;1.83;1.73;;;;;;;21.87;51.89;98981.03;5115694;28;20251;-69
2022/05/22 00:35:47;;;;;;;7.07;1.83;;;;;;;21.91;52.10;98981.25;5115970;28;20272;-69
2022/05/22 00:38:14;;;;;;;2.10;2.00;;;;;;;21.92;52.10;98978.28;5115888;28;20256;-69
2022/05/22 00:40:41;;;;;;;4.77;2.00;;;;;;;22.00;52.40;98974.97;5116042;28;20215;-69
2022/05/22 00:43:23;;;;;;;2.23;2.03;;;;;;;22.04;52.29;98970.63;5115494;28;20247;-69
2022/05/22 00:45:51;;;;;;;2.43;1.97;;;;;;;22.10;52.62;98966.81;5116346;28;20243;-69
2022/05/22 00:48:18;;;;;;;2.77;2.00;;;;;;;22.14;52.97;98964.31;5116006;28;20247;-69
2022/05/22 00:50:45;;;;;;;2.60;2.40;;;;;;;22.16;53.51;98965.66;5116243;28;20187;-69
2022/05/22 00:53:12;;;;;;;2.70;1.90;;;;;;;22.18;53.39;98971.59;5115268;28;20672;-69
2022/05/22 00:55:40;;;;;;;4.60;1.97;;;;;;;22.22;53.59;98967.22;5115560;28;20303;-69
2022/05/22 00:58:13;;;;;;;2.40;2.20;;;;;;;22.28;53.79;98957.16;5115204;28;20220;-69
2022/05/22 01:00:39;;;;;;;3.33;1.87;;;;;;;22.30;53.88;98963.91;5115133;28;20203;-69
2022/05/22 01:03:28;;;;;;;3.37;2.03;;;;;;;22.30;54.25;98960.41;5115423;28;20191;-69
2022/05/22 01:05:55;;;;;;;2.30;2.20;;;;;;;22.32;53.98;98961.72;5116242;28;20241;-69
2022/05/22 01:08:23;;;;;;;3.27;2.47;;;;;;;22.35;53.63;98958.47;5115830;28;20195;-69
2022/05/22 01:10:53;;;;;;;4.53;2.53;;;;;;;22.35;53.77;98958.47;5114974;28;20221;-69
2022/05/22 01:13:23;;;;;;;2.27;2.07;;;;;;;22.35;53.90;98949.53;5114961;28;20276;-69
2022/05/22 01:15:50;;;;;;;3.63;1.93;;;;;;;22.32;54.38;98950.91;5114872;28;20227;-69
2022/05/22 01:18:18;;;;;;;3.63;2.30;;;;;;;22.29;54.54;98948.75;5115139;28;20279;-69
2022/05/22 01:20:47;;;;;;;2.53;2.30;;;;;;;22.29;54.59;98935.22;5114958;28;20219;-68
2022/05/22 01:23:16;;;;;;;2.40;2.13;;;;;;;22.26;54.85;98941.19;5115553;28;20244;-69
2022/05/22 01:25:43;;;;;;;4.03;2.37;;;;;;;22.26;54.90;98938.50;5115524;28;20196;-69
2022/05/22 01:28:12;;;;;;;3.30;2.23;;;;;;;22.31;54.83;98937.66;5114659;28;20195;-69
2022/05/22 01:30:38;;;;;;;2.90;2.40;;;;;;;22.36;54.93;98930.28;5114372;27;20196;-69
2022/05/22 01:33:06;;;;;;;2.43;2.23;;;;;;;22.40;54.85;98931.34;5114675;28;20252;-69
2022/05/22 01:35:35;;;;;;;2.70;2.50;;;;;;;22.46;55.02;98926.69;5115368;28;20188;-69
2022/05/22 01:38:02;;;;;;;3.40;2.30;;;;;;;22.43;55.25;98919.94;5114685;28;20684;-69
2022/05/22 01:40:33;;;;;;;2.33;2.23;;;;;;;22.43;55.51;98919.13;5114668;28;20219;-69
2022/05/22 01:43:00;;;;;;;3.67;2.80;;;;;;;22.37;55.67;98921.06;5114403;28;20182;-69
2022/05/22 01:45:27;;;;;;;8.90;2.80;;;;;;;22.39;55.60;98918.09;5114310;28;20187;-69
2022/05/22 01:47:54;;;;;;;2.70;2.50;;;;;;;22.38;55.78;98922.69;5115377;28;20255;-69
2022/05/22 01:50:21;;;;;;;3.90;2.60;;;;;;;22.28;55.87;98924.69;5114032;28;20261;-69
2022/05/22 01:52:48;;;;;;;2.93;2.60;;;;;;;22.34;55.75;98929.75;5114160;28;20205;-69
2022/05/22 01:55:15;;;;;;;6.50;3.00;;;;;;;22.45;56.15;98923.16;5115014;28;20190;-69
2022/05/22 01:57:43;;;;;;;7.30;2.67;;;;;;;22.48;57.06;98925.34;5114905;28;20244;-69
2022/05/22 02:00:14;;;;;;;2.77;2.53;;;;;;;22.52;56.72;98918.25;5113926;28;20218;-69
2022/05/22 02:02:41;;;;;;;5.97;2.60;;;;;;;22.54;56.56;98921.47;5115137;28;20183;-69
2022/05/22 02:05:08;;;;;;;3.10;2.80;;;;;;;22.41;56.28;98922.13;5113886;28;20192;-69
2022/05/22 02:10:19;;;;;;;2.70;2.50;;;;;;;22.28;56.06;98925.50;5114773;28;20324;-69
2022/05/22 02:12:47;;;;;;;2.77;2.57;;;;;;;22.15;55.98;98930.75;5113761;28;20196;-69
2022/05/22 02:15:14;;;;;;;2.73;2.40;;;;;;;21.96;55.87;98933.34;5114803;28;20256;-69
2022/05/22 02:17:41;;;;;;;3.27;2.57;;;;;;;21.87;56.47;98935.06;5113646;28;20721;-69
2022/05/22 02:20:08;;;;;;;7.67;2.77;;;;;;;21.88;55.79;98938.59;5113828;28;20627;-69
2022/05/22 02:22:40;;;;;;;2.90;2.70;;;;;;;21.85;55.55;98934.50;5113506;28;20190;-69
2022/05/22 02:25:08;;;;;;;3.50;2.80;;;;;;;21.93;55.11;98935.84;5113840;28;20275;-69
2022/05/22 02:27:35;;;;;;;3.33;2.73;;;;;;;21.95;54.88;98934.47;5113444;28;20652;-69
2022/05/22 02:30:05;;;;;;;5.17;3.07;;;;;;;22.03;54.76;98925.72;5114004;28;20202;-69
2022/05/22 02:32:32;;;;;;;4.20;2.40;;;;;;;22.10;54.54;98939.75;5113669;28;20241;-69
2022/05/22 02:34:59;;;;;;;3.07;2.77;;;;;;;22.10;54.56;98934.34;5113615;28;20191;-69
2022/05/22 02:37:26;;;;;;;3.03;2.53;;;;;;;22.14;54.56;98929.97;5113595;28;20186;-69
2022/05/22 02:39:52;;;;;;;9.43;3.03;;;;;;;22.14;54.99;98929.97;5113698;28;20314;-69
2022/05/22 02:42:19;;;;;;;3.57;2.77;;;;;;;22.24;54.59;98937.16;5112853;28;20248;-69
2022/05/22 02:44:46;;;;;;;4.23;2.77;;;;;;;22.22;54.53;98928.53;5113123;28;20256;-69
2022/05/22 02:47:14;;;;;;;4.20;2.60;;;;;;;22.24;54.43;98938.00;5113101;28;20203;-69
2022/05/22 02:49:40;;;;;;;3.50;2.60;;;;;;;22.21;54.63;98935.84;5113506;28;20284;-69
2022/05/22 02:52:07;;;;;;;3.70;2.70;;;;;;;22.22;54.75;98940.16;5113572;28;20199;-69
2022/05/22 02:54:34;;;;;;;3.20;3.00;;;;;;;22.19;54.84;98929.09;5113799;28;20190;-69
2022/05/22 02:57:03;;;;;;;8.80;3.40;;;;;;;22.10;55.27;98942.44;5113208;28;20248;-69
2022/05/22 02:59:34;;;;;;;6.53;2.93;;;;;;;22.06;55.58;98933.28;5112784;28;20663;-68
2022/05/22 03:02:00;;;;;;;3.47;3.17;;;;;;;22.10;55.68;98931.63;5113456;28;20205;-68
2022/05/22 03:04:28;;;;;;;3.67;3.13;;;;;;;22.04;55.97;98932.75;5113907;28;20186;-68
2022/05/22 03:06:56;;;;;;;5.03;2.67;;;;;;;21.97;56.13;98934.97;5113870;28;20188;-68
2022/05/22 03:09:22;;;;;;;3.60;2.80;;;;;;;21.98;56.32;98939.31;5113876;28;20248;-68
2022/05/22 03:11:49;;;;;;;3.20;3.00;;;;;;;22.03;56.11;98939.25;5113830;28;20195;-68
2022/05/22 03:14:16;;;;;;;7.67;3.30;;;;;;;22.01;56.17;98943.34;5112971;28;20187;-68
2022/05/22 03:16:42;;;;;;;4.13;2.70;;;;;;;22.15;56.07;98944.28;5112940;28;20638;-68
2022/05/22 03:19:09;;;;;;;6.93;3.10;;;;;;;22.12;56.16;98944.84;5113196;28;20251;-68
2022/05/22 03:21:37;;;;;;;4.70;2.93;;;;;;;22.12;56.30;98952.97;5112840;28;20218;-68
2022/05/22 03:24:05;;;;;;;3.60;3.37;;;;;;;22.22;56.19;98950.97;5112544;28;20571;-68
2022/05/22 03:26:32;;;;;;;3.30;3.00;;;;;;;22.19;56.31;98956.97;5113105;28;20251;-69
2022/05/22 03:28:58;;;;;;;3.30;3.00;;;;;;;22.16;56.48;98945.91;5112793;28;20245;-68
2022/05/22 03:31:25;;;;;;;3.03;2.83;;;;;;;22.19;56.67;98948.03;5112372;28;20220;-68
2022/05/22 03:33:52;;;;;;;4.13;2.80;;;;;;;22.26;56.67;98948.53;5112725;28;20190;-68
2022/05/22 03:36:18;;;;;;;7.17;3.60;;;;;;;22.33;56.36;98946.31;5112964;28;20195;-68
2022/05/22 03:38:46;;;;;;;16.63;4.13;;;;;;;22.34;56.56;98948.69;5112352;28;20194;-68
2022/05/22 03:41:13;;;;;;;3.50;3.20;;;;;;;22.37;56.60;98952.75;5113127;28;20218;-68
2022/05/22 03:43:40;;;;;;;5.53;3.20;;;;;;;22.45;56.30;98958.34;5112920;28;20213;-68
2022/05/22 03:46:07;;;;;;;3.73;3.40;;;;;;;22.41;56.02;98959.22;5112588;28;20187;-68
2022/05/22 03:48:33;;;;;;;6.53;3.53;;;;;;;22.51;55.53;98964.56;5112719;28;20258;-68
2022/05/22 03:51:00;;;;;;;7.43;3.30;;;;;;;22.49;55.59;98961.31;5113125;28;20247;-68
2022/05/22 03:53:27;;;;;;;5.10;3.07;;;;;;;22.56;54.71;98956.38;5114477;28;20236;-68
2022/05/22 03:55:55;;;;;;;4.30;3.20;;;;;;;22.58;54.93;98960.41;5116424;28;20672;-68
2022/05/22 03:58:21;;;;;;;3.03;2.80;;;;;;;22.59;55.18;98966.66;5116675;28;20245;-68
2022/05/22 04:00:48;;;;;;;5.53;3.30;;;;;;;22.64;54.62;98959.28;5116256;28;20271;-68
2022/05/22 04:03:15;;;;;;;4.63;2.90;;;;;;;22.65;54.64;98954.66;5117401;28;20187;-68
2022/05/22 04:05:42;;;;;;;4.30;2.77;;;;;;;22.69;54.71;98950.28;5116545;28;20195;-69
2022/05/22 04:08:08;;;;;;;3.10;2.90;;;;;;;22.80;54.16;98958.03;5116463;28;20254;-68
2022/05/22 04:10:36;;;;;;;4.33;2.97;;;;;;;22.75;54.07;98966.19;5116379;28;20199;-68
2022/05/22 04:13:05;;;;;;;3.33;3.10;;;;;;;22.85;53.86;98959.84;5116385;28;20188;-68
2022/05/22 04:15:31;;;;;;;7.40;3.67;;;;;;;22.75;54.27;98960.75;5116008;28;20191;-68
2022/05/22 04:17:58;;;;;;;3.27;3.00;;;;;;;22.75;54.27;98977.00;5116003;28;20198;-68
2022/05/22 04:20:25;;;;;;;3.20;3.00;;;;;;;22.87;54.09;98984.75;5116702;28;20248;-68
2022/05/22 04:25:36;;;;;;;3.30;3.00;;;;;;;22.92;53.22;98968.44;5115902;28;20191;-68
2022/05/22 04:28:05;;;;;;;4.87;2.93;;;;;;;22.91;53.10;98958.72;5115979;28;20188;-68
2022/05/22 04:30:32;;;;;;;3.47;2.60;;;;;;;22.93;52.65;98981.72;5116049;28;20583;-68
2022/05/22 04:32:58;;;;;;;4.03;2.97;;;;;;;22.99;52.52;98983.25;5116533;28;20248;-68
2022/05/22 04:35:25;;;;;;;2.80;2.70;;;;;;;22.97;52.01;98982.75;5115634;28;20227;-68
2022/05/22 04:37:52;;;;;;;2.90;2.70;;;;;;;23.02;51.69;98976.44;5115573;28;20564;-68
2022/05/22 04:40:19;;;;;;;3.23;2.90;;;;;;;23.14;51.22;98974.94;5115444;28;20269;-68
2022/05/22 04:42:46;;;;;;;11.70;2.77;;;;;;;23.14;50.72;98980.38;5115479;28;20241;-68
2022/05/22 04:45:14;;;;;;;3.60;2.87;;;;;;;23.20;50.56;98979.22;5116605;27;20272;-68
2022/05/22 04:47:42;;;;;;;5.07;2.70;;;;;;;23.30;49.57;98989.13;5115357;28;20686;-68
2022/05/22 04:50:10;;;;;;;2.97;2.77;;;;;;;23.41;48.96;99004.19;5116433;28;20225;-68
2022/05/22 04:52:37;;;;;;;6.57;2.87;;;;;;;23.61;48.41;98991.16;5115280;28;20221;-68
2022/05/22 04:55:05;;;;;;;3.63;2.47;;;;;;;23.90;48.08;98991.84;5115582;28;20198;-68
2022/05/22 04:57:32;;;;;;;5.37;2.67;;;;;;;24.17;46.61;98996.56;5115234;28;20666;-68
2022/05/22 04:59:59;;;;;;;3.83;2.40;;;;;;;24.20;46.20;99010.38;5115158;28;20201;-68
2022/05/22 05:02:27;;;;;;;4.77;2.80;;;;;;;24.24;46.24;98997.84;5115057;28;20263;-68
2022/05/22 05:04:54;;;;;;;2.70;2.50;;;;;;;24.22;45.97;98993.81;5114426;28;20202;-68
2022/05/22 05:07:21;;;;;;;3.00;2.40;;;;;;;24.17;46.03;99000.09;5115016;28;20683;-68
2022/05/22 05:09:49;;;;;;;2.87;2.67;;;;;;;24.12;46.02;98997.47;5114996;28;20666;-68
2022/05/22 05:12:16;;;;;;;2.67;2.47;;;;;;;24.11;45.73;99005.91;5115296;28;20257;-68
2022/05/22 05:14:43;;;;;;;3.40;2.53;;;;;;;24.08;45.82;99001.88;5114915;28;20200;-68
2022/05/22 05:17:11;;;;;;;3.00;2.47;;;;;;;24.08;46.30;99007.31;5114834;28;20561;-68
2022/05/22 05:19:39;;;;;;;3.23;2.60;;;;;;;24.12;45.57;98999.38;5115056;28;20202;-68
2022/05/22 05:22:06;;;;;;;8.40;2.57;;;;;;;24.12;45.03;98996.66;5114984;28;20634;-68
2022/05/22 05:24:33;;;;;;;6.23;2.90;;;;;;;24.61;43.95;98994.22;5115025;28;20261;-68
2022/05/22 05:27:01;;;;;;;3.40;2.30;;;;;;;24.82;42.89;99000.91;5114643;28;20194;-68
2022/05/22 05:29:28;;;;;;;2.63;2.43;;;;;;;24.59;42.57;98980.91;5115720;28;20193;-68
2022/05/22 05:31:54;;;;;;;4.27;2.40;;;;;;;24.69;42.98;98991.63;5115699;28;20201;-69
2022/05/22 05:34:21;;;;;;;2.33;2.20;;;;;;;24.77;43.07;98996.38;5114739;28;20202;-69
2022/05/22 05:36:49;;;;;;;7.90;2.37;;;;;;;24.81;42.15;98989.25;5114443;28;20590;-69
2022/05/22 05:39:16;;;;;;;2.60;2.27;;;;;;;24.75;41.84;98995.88;5114650;28;20247;-69
2022/05/22 05:41:44;;;;;;;4.30;2.30;;;;;;;25.22;41.77;98986.53;5114202;28;20217;-68
2022/05/22 05:44:10;;;;;;;4.40;2.20;;;;;;;26.65;38.42;98979.13;5114205;28;20186;-68
2022/05/22 05:46:39;;;;;;;3.17;2.33;;;;;;;28.06;35.32;98982.91;5114437;27;20606;-68
2022/05/22 05:49:06;;;;;;;2.30;2.10;;;;;;;29.15;33.48;98993.94;5114353;28;20584;-69
2022/05/22 05:51:35;;;;;;;2.60;2.13;;;;;;;30.10;31.42;99008.66;5114462;28;20201;-69
2022/05/22 05:54:04;;;;;;;7.13;2.27;;;;;;;30.15;31.41;99000.25;5114075;28;20197;-69
2022/05/22 05:56:31;;;;;;;3.53;2.10;;;;;;;29.75;30.64;99001.00;5113982;28;20194;-69
2022/05/22 05:58:58;;;;;;;6.30;2.20;;;;;;;29.23;31.70;99000.50;5114761;28;20187;-69
2022/05/22 06:01:25;;;;;;;9.10;2.70;;;;;;;29.03;31.63;98993.03;5113062;28;20275;-71
2022/05/22 06:03:52;;;;;;;5.47;2.27;;;;;;;29.32;31.43;98987.59;5121172;27;20190;-70
2022/05/22 06:06:19;;;;;;;3.27;1.90;;;;;;;30.10;30.16;98991.41;5128569;27;20187;-71
2022/05/22 06:08:46;;;;;;;4.60;2.10;;;;;;;30.31;29.61;99001.22;5113966;28;20287;-70
2022/05/22 06:11:14;;;;;;;4.27;2.10;;;;;;;30.85;28.90;99001.97;5124724;27;20197;-71
2022/05/22 06:13:41;;;;;;;7.53;1.93;;;;;;;31.01;28.39;99006.47;5134438;27;20255;-70
2022/05/22 06:16:09;;;;;;;3.43;2.10;;;;;;;31.47;27.69;99002.47;5132994;27;20567;-70
2022/05/22 06:18:35;;;;;;;37.77;4.40;;;;;;;31.39;26.39;98995.97;5132461;27;20786;-69
2022/05/22 06:21:09;;;;;;;5.63;2.00;;;;;;;31.75;25.99;99014.34;5113436;28;20214;-70
2022/05/22 06:23:35;;;;;;;2.83;1.80;;;;;;;32.15;25.50;99012.44;5113422;28;20718;-71
2022/05/22 06:26:02;;;;;;;8.80;2.10;;;;;;;31.98;26.39;99012.72;5113398;28;20652;-70
2022/05/22 06:28:30;;;;;;;6.33;1.80;;;;;;;31.97;25.49;99006.44;5113715;28;20220;-71
2022/05/22 06:30:57;;;;;;;12.47;1.83;;;;;;;31.74;25.23;99013.56;5113560;28;20195;-71
2022/05/22 06:33:23;;;;;;;5.13;2.40;;;;;;;31.50;25.70;99019.09;5113114;28;20194;-71
2022/05/22 06:35:50;;;;;;;3.13;1.93;;;;;;;31.91;25.51;99012.50;5115891;27;20254;-71
2022/05/22 06:40:58;;;;;;;7.33;1.63;;;;;;;32.11;25.00;99023.34;5133482;27;20212;-71
2022/05/22 06:43:24;;;;;;;2.93;1.53;;;;;;;31.83;25.23;99017.00;5133734;27;20246;-71
2022/05/22 06:45:52;;;;;;;2.07;1.67;;;;;;;31.22;25.86;99022.81;5133707;27;20197;-71
2022/05/22 06:48:19;;;;;;;3.43;1.80;;;;;;;30.97;25.77;99022.00;5132799;27;20194;-71
2022/05/22 06:50:46;;;;;;;3.47;1.83;;;;;;;31.04;26.06;99025.00;5133276;27;20683;-71
2022/05/22 06:53:13;;;;;;;4.50;1.60;;;;;;;30.47;27.05;99024.13;5133419;27;20186;-70
2022/05/22 06:55:40;;;;;;;4.60;1.50;;;;;;;29.92;27.88;99012.66;5133184;27;20242;-70
2022/05/22 06:58:07;;;;;;;4.90;1.60;;;;;;;29.51;28.13;99004.38;5132819;27;20286;-70
2022/05/22 07:00:34;;;;;;;4.23;1.80;;;;;;;29.19;29.13;99018.69;5132950;27;20187;-70
2022/05/22 07:03:02;;;;;;;4.07;1.73;;;;;;;29.04;29.53;99013.78;5133358;27;20274;-70
2022/05/22 07:05:28;;;;;;;2.97;1.50;;;;;;;28.62;29.93;99012.75;5133720;27;20189;-70
2022/05/22 07:07:55;;;;;;;2.03;1.50;;;;;;;28.25;30.19;99018.06;5133332;27;20561;-70
2022/05/22 07:11:38;;;;;;;3.40;2.20;;;;;;;28.03;30.31;99026.44;5126612;27;20190;-70
2022/05/22 07:13:10;;;;;;;4.80;1.77;;;;;;;27.52;31.22;99015.44;5112180;28;20193;-70
2022/05/22 07:15:37;;;;;;;4.07;1.40;;;;;;;27.22;31.54;99021.75;5112373;28;20706;-70
2022/05/22 07:18:06;;;;;;;1.80;1.60;;;;;;;27.08;32.16;99008.22;5112212;28;20247;-72
2022/05/22 07:20:32;;;;;;;8.13;2.03;;;;;;;26.86;32.63;99019.16;5112977;28;20186;-70
2022/05/22 07:22:59;;;;;;;6.27;1.87;;;;;;;26.89;32.81;99023.19;5112277;28;20219;-69
2022/05/22 07:25:26;;;;;;;1.87;1.70;;;;;;;26.74;33.32;99020.88;5112562;28;20192;-69
2022/05/22 07:27:53;;;;;;;5.03;2.27;;;;;;;26.76;33.80;99015.91;5111842;28;20285;-69
2022/05/22 07:30:20;;;;;;;8.10;2.10;;;;;;;26.78;33.83;99016.41;5112130;28;20697;-69
2022/05/22 07:32:46;;;;;;;3.30;1.90;;;;;;;26.86;33.60;99012.94;5112548;28;20202;-69
2022/05/22 07:35:15;;;;;;;4.30;2.00;;;;;;;26.83;33.91;99016.28;5112682;28;20248;-69
2022/05/22 07:37:41;;;;;;;5.57;2.07;;;;;;;26.83;33.54;99006.16;5111843;28;20195;-70
2022/05/22 07:40:09;;;;;;;5.37;2.30;;;;;;;26.69;34.19;99007.38;5112865;28;20327;-70
2022/05/22 07:42:35;;;;;;;14.20;2.67;;;;;;;26.90;33.49;98994.84;5111921;28;20214;-70
2022/05/22 07:45:02;;;;;;;14.57;5.77;;;;;;;26.94;33.69;98993.06;5111738;28;20220;-70
2022/05/22 07:47:29;;;;;;;5.47;2.20;;;;;;;27.16;33.37;98995.72;5112908;28;20194;-71
2022/05/22 07:52:41;;;;;;;25.03;2.77;;;;;;;27.31;34.12;98992.59;5112579;28;20642;-70
2022/05/22 07:55:14;;;;;;;4.60;1.63;;;;;;;27.69;33.41;98994.41;5112182;28;20207;-70
2022/05/22 07:57:41;;;;;;;7.90;1.87;;;;;;;28.27;32.17;98991.25;5111857;28;20198;-70
2022/05/22 08:00:09;;;;;;;7.23;2.03;;;;;;;28.73;31.74;98986.69;5111672;28;20228;-71
2022/05/22 08:02:35;;;;;;;5.57;1.50;;;;;;;29.15;31.52;98995.84;5112333;28;20214;-70
2022/05/22 08:05:02;;;;;;;8.30;2.03;;;;;;;29.14;31.78;98991.53;5111577;28;20641;-71
2022/05/22 08:07:29;;;;;;;5.17;2.07;;;;;;;29.02;31.47;98994.16;5112853;28;20195;-70
2022/05/22 08:09:57;;;;;;;4.57;1.77;;;;;;;29.16;31.69;98981.06;5114486;28;20187;-70
2022/05/22 08:12:24;;;;;;;5.60;1.90;;;;;;;29.23;32.20;98990.34;5133422;27;20527;-70
2022/05/22 08:14:51;;;;;;;4.53;1.73;;;;;;;29.27;32.73;98979.53;5132134;27;20190;-70
2022/05/22 08:17:21;;;;;;;2.50;1.90;;;;;;;29.33;31.76;98972.75;5132994;27;20247;-70
2022/05/22 08:19:48;;;;;;;7.50;1.90;;;;;;;28.97;29.84;98978.72;5132108;27;20193;-70
2022/05/22 08:22:16;;;;;;;3.73;1.87;;;;;;;28.69;30.48;98985.72;5132466;27;20217;-70
2022/05/22 08:24:42;;;;;;;7.93;1.47;;;;;;;28.59;30.62;98980.59;5132371;27;20186;-70
2022/05/22 08:27:11;;;;;;;1.67;1.20;;;;;;;28.68;30.14;98975.13;5132071;27;20728;-70
2022/05/22 08:29:38;;;;;;;3.90;1.60;;;;;;;28.95;30.11;98982.91;5132238;27;20242;-70
2022/05/22 08:32:05;;;;;;;11.80;1.80;;;;;;;28.65;29.84;98983.97;5132455;27;20197;-70
2022/05/22 08:34:32;;;;;;;18.60;2.37;;;;;;;28.62;29.38;98985.41;5131989;27;20223;-70
2022/05/22 08:36:59;;;;;;;6.70;1.67;;;;;;;28.73;29.50;98980.41;5132556;27;20251;-70
2022/05/22 08:39:27;;;;;;;4.13;1.43;;;;;;;28.31;29.78;98973.91;5132798;27;20258;-70
2022/05/22 08:41:59;;;;;;;4.03;1.37;;;;;;;28.24;28.75;98975.50;5136125;27;20218;-70
2022/05/22 08:44:32;;;;;;;1.47;1.17;;;;;;;28.26;29.45;98976.78;5136135;27;20239;-70
2022/05/22 08:47:03;;;;;;;1.43;1.30;;;;;;;28.34;29.25;98966.97;5135657;27;20231;-69
2022/05/22 08:49:36;;;;;;;5.93;1.67;;;;;;;28.66;29.15;98964.50;5135692;27;20229;-70
2022/05/22 08:52:11;;;;;;;3.10;1.60;;;;;;;29.10;29.14;98949.53;5136620;27;20186;-70
2022/05/22 08:54:42;;;;;;;4.03;1.70;;;;;;;29.43;28.38;98955.16;5136248;27;20193;-70
2022/05/22 09:00:07;;;;;;;2.73;1.33;;;;;;;30.23;25.99;98955.53;5135551;27;20669;-70
2022/05/22 09:02:36;;;;;;;7.17;1.50;;;;;;;30.47;25.88;98950.13;5135814;27;20229;-70
2022/05/22 09:05:07;;;;;;;9.97;2.00;;;;;;;30.61;25.53;98947.84;5135202;27;20247;-71
2022/05/22 09:07:42;;;;;;;3.30;1.27;;;;;;;30.30;25.75;98953.03;5136502;27;20247;-70
2022/05/22 09:10:12;;;;;;;2.20;1.10;;;;;;;30.49;25.41;98950.56;5130982;27;20191;-71
2022/05/22 09:13:11;;;;;;;9.53;1.73;;;;;;;30.82;25.67;98943.09;5114714;28;20723;-71
2022/05/22 09:15:45;;;;;;;2.83;1.40;;;;;;;31.00;25.69;98954.66;5108934;28;20194;-71
2022/05/22 09:18:19;;;;;;;4.10;1.10;;;;;;;31.38;24.48;98950.44;5115580;28;20248;-72
2022/05/22 09:20:53;;;;;;;1.43;1.20;;;;;;;31.36;24.79;98952.72;5114857;28;20186;-72
2022/05/22 09:23:35;;;;;;;10.93;1.57;;;;;;;31.32;25.22;98946.31;5114601;28;20251;-72
2022/05/22 09:26:08;;;;;;;3.20;1.20;;;;;;;31.64;24.34;98936.34;5114755;28;20247;-71
2022/05/22 09:28:46;;;;;;;31.47;3.63;;;;;;;31.61;24.95;98940.53;5114598;28;20179;-71
2022/05/22 09:31:25;;;;;;;3.83;1.17;;;;;;;31.92;24.09;98927.00;5114852;28;20183;-71
2022/05/22 09:34:02;;;;;;;13.90;1.87;;;;;;;32.35;23.90;98929.81;5114941;28;20202;-71
2022/05/22 09:36:38;;;;;;;3.00;1.47;;;;;;;32.26;23.83;98918.13;5115650;28;20191;-71
2022/05/22 09:39:18;;;;;;;7.67;2.47;;;;;;;31.76;24.18;98917.88;5114365;28;20179;-71
2022/05/22 09:41:58;;;;;;;14.10;2.87;;;;;;;31.94;23.59;98912.91;5114635;28;20187;-71
2022/05/22 09:44:51;;;;;;;3.27;2.03;;;;;;;31.44;24.09;98904.34;5114826;28;20236;-71
2022/05/22 09:47:40;;;;;;;8.80;2.67;;;;;;;31.27;23.87;98902.66;5114640;28;20190;-71
2022/05/22 09:50:16;;;;;;;4.87;1.90;;;;;;;31.28;24.12;98893.25;5114105;28;20226;-71
2022/05/22 09:52:53;;;;;;;6.63;2.33;;;;;;;30.94;24.37;98890.22;5114139;28;20651;-71
2022/05/22 09:55:30;;;;;;;3.77;1.63;;;;;;;30.63;24.97;98896.22;5114689;28;20183;-71
2022/05/22 09:58:12;;;;;;;8.37;1.50;;;;;;;30.29;25.57;98902.09;5113944;27;20708;-71
2022/05/22 10:00:47;;;;;;;3.90;1.60;;;;;;;30.31;25.43;98888.84;5113716;28;20186;-71
2022/05/22 10:03:22;;;;;;;6.83;1.73;;;;;;;30.54;25.31;98897.47;5114619;28;20206;-71
2022/05/22 10:06:01;;;;;;;3.17;1.40;;;;;;;30.52;24.98;98897.78;5113840;28;20186;-71
2022/05/22 10:08:38;;;;;;;5.80;1.60;;;;;;;30.16;25.87;98903.19;5114950;28;20186;-71
2022/05/22 10:11:12;;;;;;;6.47;1.80;;;;;;;29.97;25.92;98900.13;5126069;27;20177;-70
2022/05/22 10:13:55;;;;;;;9.23;2.10;;;;;;;29.79;26.38;98904.16;5135454;27;20186;-70
2022/05/22 10:16:35;;;;;;;11.20;2.40;;;;;;;29.69;26.72;98904.59;5134081;27;20260;-70
2022/05/22 10:19:14;;;;;;;4.13;1.63;;;;;;;29.64;26.83;98906.72;5134140;27;20235;-70
2022/05/22 10:21:48;;;;;;;3.03;1.37;;;;;;;29.44;27.19;98902.81;5134077;27;20186;-70
2022/05/22 10:24:37;;;;;;;6.00;1.63;;;;;;;29.50;27.19;98906.13;5134057;27;20191;-69
2022/05/22 10:27:22;;;;;;;2.47;1.20;;;;;;;29.75;27.65;98908.72;5133672;27;20183;-69
2022/05/22 10:29:53;;;;;;;5.97;1.87;;;;;;;29.75;27.87;98897.75;5134593;27;20236;-70
2022/05/22 10:32:26;;;;;;;3.60;1.43;;;;;;;29.93;27.28;98890.97;5134883;27;20190;-70
2022/05/22 10:35:00;;;;;;;2.77;1.30;;;;;;;30.21;27.15;98894.75;5134112;27;20182;-70
2022/05/22 10:37:33;;;;;;;3.13;1.40;;;;;;;30.14;26.83;98889.03;5133730;27;20715;-70
2022/05/22 10:40:04;;;;;;;21.10;2.63;;;;;;;29.92;27.06;98892.13;5134504;27;20182;-70
2022/05/22 10:42:47;;;;;;;6.53;1.50;;;;;;;29.94;27.38;98903.56;5133512;27;20210;-70
2022/05/22 10:45:32;;;;;;;1.63;1.53;;;;;;;30.00;27.40;98898.66;5134466;27;20217;-70
2022/05/22 10:48:08;;;;;;;2.30;1.30;;;;;;;30.15;27.85;98887.91;5133864;27;20186;-70
2022/05/22 10:50:36;;;;;;;3.30;1.77;;;;;;;30.36;28.57;98883.16;5133486;27;20178;-70
2022/05/22 10:53:04;;;;;;;2.23;1.30;;;;;;;30.66;26.95;98884.53;5133854;27;20317;-71
2022/05/22 10:55:39;;;;;;;9.23;2.00;;;;;;;30.85;26.95;98886.75;5133731;27;20246;-70
2022/05/22 10:58:16;;;;;;;10.20;1.73;;;;;;;31.10;26.59;98880.09;5133396;27;20217;-71
2022/05/22 11:00:52;;;;;;;2.37;1.50;;;;;;;30.94;27.31;98866.28;5133416;27;20198;-70
2022/05/22 11:03:19;;;;;;;3.47;1.93;;;;;;;30.54;27.90;98865.34;5132875;27;20210;-71
2022/05/22 11:05:52;;;;;;;5.07;1.63;;;;;;;30.51;28.51;98860.56;5133004;27;20190;-70
2022/05/22 11:08:29;;;;;;;3.53;1.40;;;;;;;30.79;28.33;98850.53;5133581;27;20196;-70
2022/05/22 11:10:57;;;;;;;1.27;1.17;;;;;;;30.44;28.24;98849.34;5122319;27;20608;-70
2022/05/22 11:13:26;;;;;;;3.40;1.67;;;;;;;30.29;28.04;98847.25;5113193;28;20201;-71
2022/05/22 11:15:53;;;;;;;36.27;4.27;;;;;;;30.40;28.52;98840.22;5112836;28;20187;-70
2022/05/22 11:18:23;;;;;;;2.87;1.60;;;;;;;30.73;28.66;98834.63;5112518;28;20662;-71
2022/05/22 11:20:57;;;;;;;5.20;1.30;;;;;;;30.57;27.90;98826.28;5112784;28;20186;-72
2022/05/22 11:23:48;;;;;;;3.33;1.20;;;;;;;30.23;26.66;98839.59;5112421;28;20683;-72
2022/05/22 11:26:29;;;;;;;2.07;1.30;;;;;;;30.10;27.06;98829.75;5112594;28;20186;-72
2022/05/22 11:29:08;;;;;;;2.00;1.23;;;;;;;30.19;27.47;98831.28;5112723;28;20183;-71
2022/05/22 11:31:51;;;;;;;2.60;1.07;;;;;;;30.19;27.56;98825.78;5112272;28;20712;-70
2022/05/22 11:34:44;;;;;;;2.20;1.13;;;;;;;30.00;28.42;98822.75;5112690;28;20654;-69
2022/05/22 11:37:22;;;;;;;3.13;1.40;;;;;;;30.23;28.54;98815.75;5112725;28;20179;-69
2022/05/22 11:40:06;;;;;;;6.67;1.90;;;;;;;30.45;28.27;98804.34;5112922;28;20236;-72
2022/05/22 11:42:36;;;;;;;5.60;1.57;;;;;;;30.43;28.07;98803.91;5111922;28;20687;-70
2022/05/22 11:45:33;;;;;;;4.30;1.30;;;;;;;30.90;27.92;98804.25;5112258;28;20619;-70
2022/05/22 11:48:15;;;;;;;1.43;1.20;;;;;;;30.86;27.29;98801.38;5112383;28;20187;-71
2022/05/22 11:50:51;;;;;;;1.73;1.23;;;;;;;31.37;27.16;98803.34;5113009;28;20211;-71
2022/05/22 11:53:51;;;;;;;11.47;1.90;;;;;;;31.04;27.43;98797.25;5113152;28;20251;-71
2022/05/22 11:56:29;;;;;;;4.20;1.70;;;;;;;31.25;26.91;98800.63;5091545;28;20191;-71
2022/05/22 11:59:01;;;;;;;4.50;1.60;;;;;;;30.90;27.60;98796.00;5112806;28;20187;-71
2022/05/22 12:01:32;;;;;;;3.23;1.30;;;;;;;30.76;27.90;98801.84;5112574;28;20189;-71
2022/05/22 12:04:24;;;;;;;2.60;1.50;;;;;;;30.83;27.22;98796.56;5112602;28;20218;-71